Darstellungsparameter: Aktuell verwendete Einstellungen:
Skalierung der Graphiken ... ?
xyx+y,   Skalierungsfaktor:      Skalierung: Modus: x, Faktor: 1
Darstellungszeitraum ... ?
Vom - - bis: - -   Zeitraum: 20.11.2020 - 20.11.2020
Min/Max/Avg-Anzeige ... ?
Zeige MMA aktuell
Zeige MMA Monat
Zeige MMA alles
Zeige --A aktuell
Zeige --A Monat
Zeige --A alles
Keine MMA-Anzeige
MMA:
Keine MMA-Graphiken
MMA-Basis: 20.11.2020 - 20.11.2020
Quicknavigation für Darstellung... ?
Tage:      1T, 2T, 3T, 5T -1T -2T -3T -5T +1T +2T +3T +5T
Wochen: 1W, 2W, 3W -1W -2W -3W +1W +2W +3W
Monate: 1M, 3M, 6M -1M -3M -6M +1M +3M +6M
Jahre:    1J, 3J, 5J, 10J -1J -3J -5J -10J +1J +3J +5J +10J
Nutze für die Darstellung ... ?
Originaldaten oder Mittelwerte auf ...
Stundenbasis Tagesbasis Wochenbasis
Monatsbasis Jahresbasis      Datenbasis: Original-Daten
Darstellen als:
Statistik (Auto) Statistik J:M      Darstellung:
Zur Graphik,    zurück zur Übersicht aller Sensoren.
 
Tabellarische Datenbersicht: ?
 
Sensor: Nr:Datum:Temp:Abs-Feuchte:Windchill:Wind:
Aussen-T/F 1 20-11-2020 00:00:00 5.2 C 6.54 g/m*3 5.2 C 0 km/h
2 20-11-2020 00:05:00 5.1 C 6.5 g/m*3 5.1 C 3.2 km/h
3 20-11-2020 00:10:00 5.1 C 6.5 g/m*3 5.1 C 0 km/h
4 20-11-2020 00:15:00 5.1 C 6.5 g/m*3 5.1 C 0 km/h
5 20-11-2020 00:20:00 5.1 C 6.5 g/m*3 5.1 C 4.8 km/h
6 20-11-2020 00:25:00 5.2 C 6.54 g/m*3 5.2 C 4.8 km/h
7 20-11-2020 00:30:00 5.3 C 6.58 g/m*3 3.94 C 6.4 km/h
8 20-11-2020 00:35:00 5.4 C 6.63 g/m*3 4.06 C 6.4 km/h
9 20-11-2020 00:40:00 5.4 C 6.63 g/m*3 4.06 C 6.4 km/h
10 20-11-2020 00:45:00 5.4 C 6.63 g/m*3 5.4 C 4.8 km/h
11 20-11-2020 00:50:00 5.4 C 6.63 g/m*3 5.4 C 4.8 km/h
12 20-11-2020 00:55:00 5.4 C 6.56 g/m*3 4.06 C 6.4 km/h
13 20-11-2020 01:00:00 5.4 C 6.56 g/m*3 5.4 C 3.2 km/h
14 20-11-2020 01:05:00 5.3 C 6.52 g/m*3 5.3 C 4.8 km/h
15 20-11-2020 01:10:00 5.3 C 6.52 g/m*3 3.46 C 8.1 km/h
16 20-11-2020 01:15:00 5.3 C 6.52 g/m*3 5.3 C 0 km/h
17 20-11-2020 01:20:00 5.3 C 6.52 g/m*3 5.3 C 0 km/h
18 20-11-2020 01:25:00 5.1 C 6.36 g/m*3 5.1 C 0 km/h
19 20-11-2020 01:30:00 4.9 C 6.28 g/m*3 4.9 C 0 km/h
20 20-11-2020 01:35:00 4.8 C 6.24 g/m*3 4.8 C 4.8 km/h
21 20-11-2020 01:40:00 4.8 C 6.24 g/m*3 4.8 C 1.6 km/h
22 20-11-2020 01:45:00 4.7 C 6.19 g/m*3 3.25 C 6.4 km/h
23 20-11-2020 01:50:00 4.7 C 6.19 g/m*3 4.7 C 0 km/h
24 20-11-2020 01:55:00 4.6 C 6.22 g/m*3 4.6 C 4.8 km/h
25 20-11-2020 02:00:00 4.6 C 6.22 g/m*3 4.6 C 3.2 km/h
Sensor: Nr:Datum:Temp:Abs-Feuchte:Windchill:Wind:
Aussen-T/F 26 20-11-2020 02:05:00 4.6 C 6.22 g/m*3 4.6 C 3.2 km/h
27 20-11-2020 02:10:00 4.6 C 6.22 g/m*3 3.13 C 6.4 km/h
28 20-11-2020 02:15:00 4.7 C 6.26 g/m*3 4.7 C 4.8 km/h
29 20-11-2020 02:20:00 4.7 C 6.26 g/m*3 4.7 C 4.8 km/h
30 20-11-2020 02:25:00 4.7 C 6.26 g/m*3 4.7 C 4.8 km/h
31 20-11-2020 02:30:00 4.7 C 6.26 g/m*3 4.7 C 0 km/h
32 20-11-2020 02:35:00 4.6 C 6.22 g/m*3 4.6 C 3.2 km/h
33 20-11-2020 02:40:00 4.4 C 6.07 g/m*3 4.4 C 4.8 km/h
34 20-11-2020 02:45:00 4.2 C 5.99 g/m*3 4.2 C 0 km/h
35 20-11-2020 02:50:00 4.1 C 5.95 g/m*3 4.1 C 0 km/h
36 20-11-2020 02:55:00 3.8 C 5.83 g/m*3 3.8 C 0 km/h
37 20-11-2020 03:00:00 3.6 C 5.76 g/m*3 3.6 C 0 km/h
38 20-11-2020 03:05:00 3.4 C 5.68 g/m*3 3.4 C 0 km/h
39 20-11-2020 03:10:00 3.3 C 5.64 g/m*3 3.3 C 1.6 km/h
40 20-11-2020 03:15:00 3.2 C 5.6 g/m*3 3.2 C 0 km/h
41 20-11-2020 03:20:00 3.1 C 5.57 g/m*3 3.1 C 1.6 km/h
42 20-11-2020 03:25:00 2.9 C 5.49 g/m*3 2.9 C 1.6 km/h
43 20-11-2020 03:30:00 2.8 C 5.46 g/m*3 2.8 C 0 km/h
44 20-11-2020 03:35:00 2.8 C 5.51 g/m*3 2.8 C 1.6 km/h
45 20-11-2020 03:40:00 2.8 C 5.51 g/m*3 2.8 C 0 km/h
46 20-11-2020 03:45:00 2.7 C 5.48 g/m*3 2.7 C 0 km/h
47 20-11-2020 03:50:00 2.7 C 5.48 g/m*3 2.7 C 3.2 km/h
48 20-11-2020 03:55:00 2.8 C 5.51 g/m*3 2.8 C 1.6 km/h
49 20-11-2020 04:00:00 2.8 C 5.51 g/m*3 2.8 C 0 km/h
50 20-11-2020 04:05:00 2.7 C 5.48 g/m*3 2.7 C 3.2 km/h
Sensor: Nr:Datum:Temp:Abs-Feuchte:Windchill:Wind:
Aussen-T/F 51 20-11-2020 04:10:00 2.7 C 5.48 g/m*3 2.7 C 0 km/h
52 20-11-2020 04:15:00 2.6 C 5.44 g/m*3 2.6 C 0 km/h
53 20-11-2020 04:20:00 2.4 C 5.37 g/m*3 2.4 C 0 km/h
54 20-11-2020 04:25:00 2.4 C 5.37 g/m*3 2.4 C 0 km/h
55 20-11-2020 04:30:00 2.3 C 5.33 g/m*3 2.3 C 0 km/h
56 20-11-2020 04:35:00 2.3 C 5.39 g/m*3 2.3 C 1.6 km/h
57 20-11-2020 04:40:00 2.4 C 5.42 g/m*3 2.4 C 1.6 km/h
58 20-11-2020 04:45:00 2.4 C 5.42 g/m*3 2.4 C 0 km/h
59 20-11-2020 04:50:00 2.4 C 5.42 g/m*3 2.4 C 0 km/h
60 20-11-2020 04:55:00 2.5 C 5.46 g/m*3 2.5 C 0 km/h
61 20-11-2020 05:00:00 2.6 C 5.5 g/m*3 2.6 C 0 km/h
62 20-11-2020 05:05:00 2.7 C 5.54 g/m*3 2.7 C 0 km/h
63 20-11-2020 05:10:00 2.8 C 5.63 g/m*3 2.8 C 3.2 km/h
64 20-11-2020 05:15:00 2.9 C 5.67 g/m*3 2.9 C 4.8 km/h
65 20-11-2020 05:20:00 3 C 5.71 g/m*3 1.28 C 6.4 km/h
66 20-11-2020 05:25:00 2.9 C 5.67 g/m*3 2.9 C 3.2 km/h
67 20-11-2020 05:30:00 2.9 C 5.61 g/m*3 2.9 C 4.8 km/h
68 20-11-2020 05:35:00 2.8 C 5.57 g/m*3 2.8 C 0 km/h
69 20-11-2020 05:40:00 2.8 C 5.57 g/m*3 2.8 C 3.2 km/h
70 20-11-2020 05:45:00 2.8 C 5.57 g/m*3 2.8 C 0 km/h
71 20-11-2020 05:50:00 2.8 C 5.63 g/m*3 2.8 C 4.8 km/h
72 20-11-2020 05:55:00 2.9 C 5.67 g/m*3 2.9 C 4.8 km/h
73 20-11-2020 06:00:00 3 C 5.71 g/m*3 3 C 3.2 km/h
74 20-11-2020 06:05:00 3.1 C 5.75 g/m*3 3.1 C 3.2 km/h
75 20-11-2020 06:10:00 3.1 C 5.75 g/m*3 1.4 C 6.4 km/h
Sensor: Nr:Datum:Temp:Abs-Feuchte:Windchill:Wind:
Aussen-T/F 76 20-11-2020 06:15:00 3.1 C 5.75 g/m*3 1.4 C 6.4 km/h
77 20-11-2020 06:20:00 3.2 C 5.79 g/m*3 3.2 C 1.6 km/h
78 20-11-2020 06:25:00 3.2 C 5.79 g/m*3 3.2 C 4.8 km/h
79 20-11-2020 06:30:00 3.2 C 5.79 g/m*3 3.2 C 4.8 km/h
80 20-11-2020 06:35:00 3.2 C 5.79 g/m*3 3.2 C 1.6 km/h
81 20-11-2020 06:40:00 3.3 C 5.82 g/m*3 3.3 C 3.2 km/h
82 20-11-2020 06:45:00 3.3 C 5.82 g/m*3 3.3 C 3.2 km/h
83 20-11-2020 06:50:00 3.4 C 5.86 g/m*3 3.4 C 1.6 km/h
84 20-11-2020 06:55:00 3.5 C 5.9 g/m*3 3.5 C 4.8 km/h
85 20-11-2020 07:00:00 3.5 C 5.9 g/m*3 3.5 C 3.2 km/h
86 20-11-2020 07:05:00 3.6 C 5.94 g/m*3 3.6 C 1.6 km/h
87 20-11-2020 07:10:00 3.6 C 5.94 g/m*3 3.6 C 0 km/h
88 20-11-2020 07:15:00 3.6 C 5.94 g/m*3 1.98 C 6.4 km/h
89 20-11-2020 07:20:00 3.6 C 5.94 g/m*3 1.98 C 6.4 km/h
90 20-11-2020 07:25:00 3.6 C 5.94 g/m*3 3.6 C 3.2 km/h
91 20-11-2020 07:30:00 3.7 C 5.98 g/m*3 3.7 C 0 km/h
92 20-11-2020 07:35:00 3.7 C 5.98 g/m*3 3.7 C 1.6 km/h
93 20-11-2020 07:40:00 3.7 C 5.98 g/m*3 3.7 C 4.8 km/h
94 20-11-2020 07:45:00 3.7 C 5.98 g/m*3 3.7 C 3.2 km/h
95 20-11-2020 07:50:00 3.7 C 5.98 g/m*3 3.7 C 4.8 km/h
96 20-11-2020 07:55:00 3.8 C 6.02 g/m*3 2.21 C 6.4 km/h
97 20-11-2020 08:00:00 3.8 C 6.02 g/m*3 3.8 C 4.8 km/h
98 20-11-2020 08:05:00 3.8 C 6.02 g/m*3 3.8 C 4.8 km/h
99 20-11-2020 08:10:00 3.8 C 6.02 g/m*3 3.8 C 4.8 km/h
100 20-11-2020 08:15:00 3.8 C 6.02 g/m*3 2.21 C 6.4 km/h
Sensor: Nr:Datum:Temp:Abs-Feuchte:Windchill:Wind:
Aussen-T/F 101 20-11-2020 08:20:00 3.8 C 6.02 g/m*3 3.8 C 4.8 km/h
102 20-11-2020 08:25:00 3.8 C 6.02 g/m*3 3.8 C 4.8 km/h
103 20-11-2020 08:30:00 3.9 C 6.06 g/m*3 3.9 C 3.2 km/h
104 20-11-2020 08:35:00 3.9 C 6.06 g/m*3 3.9 C 3.2 km/h
105 20-11-2020 08:40:00 3.9 C 6.06 g/m*3 3.9 C 3.2 km/h
106 20-11-2020 08:45:00 4 C 6.1 g/m*3 4 C 4.8 km/h
107 20-11-2020 08:50:00 4.1 C 6.14 g/m*3 4.1 C 3.2 km/h
108 20-11-2020 08:55:00 4.1 C 6.14 g/m*3 4.1 C 4.8 km/h
109 20-11-2020 09:00:00 4.1 C 6.14 g/m*3 2.55 C 6.4 km/h
110 20-11-2020 09:05:00 4.2 C 6.19 g/m*3 4.2 C 3.2 km/h
111 20-11-2020 09:10:00 4.2 C 6.19 g/m*3 4.2 C 0 km/h
112 20-11-2020 09:15:00 4.2 C 6.19 g/m*3 2.67 C 6.4 km/h
113 20-11-2020 09:20:00 4.3 C 6.23 g/m*3 4.3 C 4.8 km/h
114 20-11-2020 09:25:00 4.3 C 6.23 g/m*3 4.3 C 4.8 km/h
115 20-11-2020 09:30:00 4.3 C 6.23 g/m*3 4.3 C 3.2 km/h
116 20-11-2020 09:35:00 4.4 C 6.27 g/m*3 2.9 C 6.4 km/h
117 20-11-2020 09:40:00 4.4 C 6.27 g/m*3 4.4 C 4.8 km/h
118 20-11-2020 09:45:00 4.5 C 6.31 g/m*3 4.5 C 4.8 km/h
119 20-11-2020 09:50:00 4.6 C 6.35 g/m*3 4.6 C 3.2 km/h
120 20-11-2020 09:55:00 4.6 C 6.35 g/m*3 4.6 C 4.8 km/h
121 20-11-2020 10:00:00 4.7 C 6.39 g/m*3 2.76 C 8.1 km/h
122 20-11-2020 10:05:00 4.7 C 6.33 g/m*3 4.7 C 4.8 km/h
123 20-11-2020 10:10:00 4.8 C 6.44 g/m*3 4.8 C 4.8 km/h
124 20-11-2020 10:15:00 4.9 C 6.41 g/m*3 4.9 C 3.2 km/h
125 20-11-2020 10:20:00 4.9 C 6.41 g/m*3 4.9 C 4.8 km/h
Sensor: Nr:Datum:Temp:Abs-Feuchte:Windchill:Wind:
Aussen-T/F 126 20-11-2020 10:25:00 5.1 C 6.5 g/m*3 3.23 C 8.1 km/h
127 20-11-2020 10:30:00 5.1 C 6.5 g/m*3 3.23 C 8.1 km/h
128 20-11-2020 10:35:00 5.2 C 6.54 g/m*3 3.82 C 6.4 km/h
129 20-11-2020 10:40:00 5.2 C 6.54 g/m*3 3.82 C 6.4 km/h
130 20-11-2020 10:45:00 5.3 C 6.58 g/m*3 3.46 C 8.1 km/h
131 20-11-2020 10:50:00 5.4 C 6.56 g/m*3 5.4 C 4.8 km/h
132 20-11-2020 10:55:00 5.5 C 6.67 g/m*3 5.5 C 3.2 km/h
133 20-11-2020 11:00:00 5.6 C 6.65 g/m*3 5.6 C 4.8 km/h
134 20-11-2020 11:05:00 5.7 C 6.69 g/m*3 4.4 C 6.4 km/h
135 20-11-2020 11:10:00 5.7 C 6.69 g/m*3 4.4 C 6.4 km/h
136 20-11-2020 11:15:00 5.7 C 6.62 g/m*3 4.4 C 6.4 km/h
137 20-11-2020 11:20:00 5.8 C 6.66 g/m*3 4.52 C 6.4 km/h
138 20-11-2020 11:25:00 5.9 C 6.71 g/m*3 4.17 C 8.1 km/h
139 20-11-2020 11:30:00 5.9 C 6.71 g/m*3 5.9 C 4.8 km/h
140 20-11-2020 11:35:00 5.9 C 6.71 g/m*3 4.63 C 6.4 km/h
141 20-11-2020 11:40:00 6 C 6.75 g/m*3 4.75 C 6.4 km/h
142 20-11-2020 11:45:00 6.1 C 6.72 g/m*3 4.86 C 6.4 km/h
143 20-11-2020 11:50:00 6.1 C 6.72 g/m*3 4.86 C 6.4 km/h
144 20-11-2020 11:55:00 6.1 C 6.72 g/m*3 6.1 C 4.8 km/h
145 20-11-2020 12:00:00 6.2 C 6.77 g/m*3 6.2 C 3.2 km/h
146 20-11-2020 12:05:00 6.2 C 6.77 g/m*3 6.2 C 4.8 km/h
147 20-11-2020 12:10:00 6.3 C 6.81 g/m*3 6.3 C 4.8 km/h
148 20-11-2020 12:15:00 6.3 C 6.74 g/m*3 6.3 C 4.8 km/h
149 20-11-2020 12:20:00 6.4 C 6.78 g/m*3 6.4 C 4.8 km/h
150 20-11-2020 12:25:00 6.4 C 6.78 g/m*3 6.4 C 4.8 km/h
Sensor: Nr:Datum:Temp:Abs-Feuchte:Windchill:Wind:
Aussen-T/F 151 20-11-2020 12:30:00 6.5 C 6.82 g/m*3 6.5 C 1.6 km/h
152 20-11-2020 12:35:00 6.6 C 6.87 g/m*3 6.6 C 4.8 km/h
153 20-11-2020 12:40:00 6.6 C 6.87 g/m*3 6.6 C 4.8 km/h
154 20-11-2020 12:45:00 6.6 C 6.79 g/m*3 6.6 C 3.2 km/h
155 20-11-2020 12:50:00 6.7 C 6.84 g/m*3 5.56 C 6.4 km/h
156 20-11-2020 12:55:00 6.7 C 6.84 g/m*3 6.7 C 3.2 km/h
157 20-11-2020 13:00:00 6.8 C 6.88 g/m*3 6.8 C 3.2 km/h
158 20-11-2020 13:05:00 6.8 C 6.88 g/m*3 5.22 C 8.1 km/h
159 20-11-2020 13:10:00 6.7 C 6.84 g/m*3 6.7 C 4.8 km/h
160 20-11-2020 13:15:00 6.7 C 6.84 g/m*3 6.7 C 3.2 km/h
161 20-11-2020 13:20:00 6.7 C 6.84 g/m*3 6.7 C 1.6 km/h
162 20-11-2020 13:25:00 6.7 C 6.84 g/m*3 6.7 C 4.8 km/h
163 20-11-2020 13:30:00 6.7 C 6.84 g/m*3 6.7 C 0 km/h
164 20-11-2020 13:35:00 6.8 C 6.88 g/m*3 6.8 C 1.6 km/h
165 20-11-2020 13:40:00 6.8 C 6.88 g/m*3 6.8 C 4.8 km/h
166 20-11-2020 13:45:00 6.8 C 6.88 g/m*3 6.8 C 1.6 km/h
167 20-11-2020 13:50:00 6.8 C 6.88 g/m*3 6.8 C 4.8 km/h
168 20-11-2020 13:55:00 6.8 C 6.88 g/m*3 6.8 C 4.8 km/h
169 20-11-2020 14:00:00 6.9 C 6.93 g/m*3 6.9 C 4.8 km/h
170 20-11-2020 14:05:00 6.9 C 6.93 g/m*3 6.9 C 4.8 km/h
171 20-11-2020 14:10:00 6.8 C 6.65 g/m*3 5.22 C 8.1 km/h
172 20-11-2020 14:15:00 6.7 C 6.53 g/m*3 5.11 C 8.1 km/h
173 20-11-2020 14:20:00 6.6 C 6.49 g/m*3 5.44 C 6.4 km/h
174 20-11-2020 14:25:00 6.6 C 6.49 g/m*3 6.6 C 4.8 km/h
175 20-11-2020 14:30:00 6.5 C 6.37 g/m*3 6.5 C 4.8 km/h
Sensor: Nr:Datum:Temp:Abs-Feuchte:Windchill:Wind:
Aussen-T/F 176 20-11-2020 14:35:00 6.5 C 6.37 g/m*3 5.33 C 6.4 km/h
177 20-11-2020 14:40:00 6.4 C 6.33 g/m*3 6.4 C 4.8 km/h
178 20-11-2020 14:45:00 6.5 C 6.37 g/m*3 6.5 C 4.8 km/h
179 20-11-2020 14:50:00 6.5 C 6.3 g/m*3 6.5 C 3.2 km/h
180 20-11-2020 14:55:00 6.6 C 6.42 g/m*3 6.6 C 0 km/h
181 20-11-2020 15:00:00 6.6 C 6.34 g/m*3 6.6 C 3.2 km/h
182 20-11-2020 15:05:00 6.7 C 6.38 g/m*3 6.7 C 3.2 km/h
183 20-11-2020 15:10:00 6.7 C 6.38 g/m*3 6.7 C 1.6 km/h
184 20-11-2020 15:15:00 6.8 C 6.5 g/m*3 6.8 C 3.2 km/h
185 20-11-2020 15:20:00 6.8 C 6.42 g/m*3 6.8 C 3.2 km/h
186 20-11-2020 15:25:00 6.8 C 6.42 g/m*3 6.8 C 3.2 km/h
187 20-11-2020 15:30:00 6.8 C 6.42 g/m*3 6.8 C 0 km/h
188 20-11-2020 15:35:00 6.8 C 6.42 g/m*3 6.8 C 0 km/h
189 20-11-2020 15:40:00 6.8 C 6.42 g/m*3 6.8 C 0 km/h
190 20-11-2020 15:45:00 6.8 C 6.42 g/m*3 6.8 C 0 km/h
191 20-11-2020 15:50:00 6.9 C 6.47 g/m*3 6.9 C 0 km/h
192 20-11-2020 15:55:00 6.9 C 6.54 g/m*3 6.9 C 0 km/h
193 20-11-2020 16:00:00 6.9 C 6.54 g/m*3 6.9 C 0 km/h
194 20-11-2020 16:05:00 7 C 6.59 g/m*3 7 C 0 km/h
195 20-11-2020 16:10:00 7 C 6.59 g/m*3 7 C 0 km/h
196 20-11-2020 16:15:00 7 C 6.59 g/m*3 7 C 0 km/h
197 20-11-2020 16:20:00 7 C 6.59 g/m*3 7 C 0 km/h
198 20-11-2020 16:25:00 6.9 C 6.62 g/m*3 6.9 C 0 km/h
199 20-11-2020 16:30:00 6.9 C 6.62 g/m*3 6.9 C 0 km/h
200 20-11-2020 16:35:00 6.8 C 6.58 g/m*3 6.8 C 0 km/h
Sensor: Nr:Datum:Temp:Abs-Feuchte:Windchill:Wind:
Aussen-T/F 201 20-11-2020 16:40:00 6.8 C 6.58 g/m*3 6.8 C 0 km/h
202 20-11-2020 16:45:00 6.7 C 6.53 g/m*3 6.7 C 0 km/h
203 20-11-2020 16:50:00 6.5 C 6.45 g/m*3 6.5 C 0 km/h
204 20-11-2020 16:55:00 6.4 C 6.48 g/m*3 6.4 C 0 km/h
205 20-11-2020 17:00:00 6.3 C 6.44 g/m*3 6.3 C 0 km/h
206 20-11-2020 17:05:00 6.2 C 6.47 g/m*3 6.2 C 0 km/h
207 20-11-2020 17:10:00 6.1 C 6.43 g/m*3 6.1 C 0 km/h
208 20-11-2020 17:15:00 6 C 6.39 g/m*3 6 C 0 km/h
209 20-11-2020 17:20:00 5.9 C 6.35 g/m*3 5.9 C 0 km/h
210 20-11-2020 17:25:00 5.8 C 6.3 g/m*3 5.8 C 0 km/h
211 20-11-2020 17:30:00 5.7 C 6.26 g/m*3 5.7 C 0 km/h
212 20-11-2020 17:35:00 5.6 C 6.22 g/m*3 5.6 C 0 km/h
213 20-11-2020 17:40:00 5.4 C 6.14 g/m*3 5.4 C 0 km/h
214 20-11-2020 17:45:00 5.3 C 6.1 g/m*3 5.3 C 1.6 km/h
215 20-11-2020 17:50:00 5.1 C 6.02 g/m*3 5.1 C 0 km/h
216 20-11-2020 17:55:00 4.8 C 5.9 g/m*3 4.8 C 1.6 km/h
217 20-11-2020 18:00:00 4.6 C 5.82 g/m*3 4.6 C 0 km/h
218 20-11-2020 18:05:00 4.4 C 5.81 g/m*3 4.4 C 3.2 km/h
219 20-11-2020 18:10:00 4.2 C 5.73 g/m*3 4.2 C 3.2 km/h
220 20-11-2020 18:15:00 4.1 C 5.7 g/m*3 4.1 C 0 km/h
221 20-11-2020 18:20:00 3.9 C 5.68 g/m*3 3.9 C 0 km/h
222 20-11-2020 18:25:00 3.8 C 5.65 g/m*3 3.8 C 0 km/h
223 20-11-2020 18:30:00 3.7 C 5.61 g/m*3 3.7 C 0 km/h
224 20-11-2020 18:35:00 3.4 C 5.5 g/m*3 3.4 C 0 km/h
225 20-11-2020 18:40:00 3.3 C 5.46 g/m*3 3.3 C 0 km/h
Sensor: Nr:Datum:Temp:Abs-Feuchte:Windchill:Wind:
Aussen-T/F 226 20-11-2020 18:45:00 3.2 C 5.48 g/m*3 3.2 C 0 km/h
227 20-11-2020 18:50:00 3.2 C 5.48 g/m*3 3.2 C 0 km/h
228 20-11-2020 18:55:00 3.1 C 5.45 g/m*3 3.1 C 0 km/h
229 20-11-2020 19:00:00 2.9 C 5.37 g/m*3 2.9 C 0 km/h
230 20-11-2020 19:05:00 2.8 C 5.34 g/m*3 2.8 C 0 km/h
231 20-11-2020 19:10:00 2.7 C 5.36 g/m*3 2.7 C 0 km/h
232 20-11-2020 19:15:00 2.6 C 5.32 g/m*3 2.6 C 0 km/h
233 20-11-2020 19:20:00 2.5 C 5.29 g/m*3 2.5 C 0 km/h
234 20-11-2020 19:25:00 2.4 C 5.25 g/m*3 2.4 C 0 km/h
235 20-11-2020 19:30:00 2.3 C 5.27 g/m*3 2.3 C 0 km/h
236 20-11-2020 19:35:00 2.2 C 5.24 g/m*3 2.2 C 0 km/h
237 20-11-2020 19:40:00 2.1 C 5.15 g/m*3 2.1 C 0 km/h
238 20-11-2020 19:45:00 2 C 5.17 g/m*3 2 C 0 km/h
239 20-11-2020 19:50:00 1.9 C 5.13 g/m*3 1.9 C 0 km/h
240 20-11-2020 19:55:00 1.8 C 5.1 g/m*3 1.8 C 0 km/h
241 20-11-2020 20:00:00 1.7 C 5.06 g/m*3 1.7 C 0 km/h
242 20-11-2020 20:05:00 1.6 C 5.03 g/m*3 1.6 C 0 km/h
243 20-11-2020 20:10:00 1.4 C 4.96 g/m*3 1.4 C 0 km/h
244 20-11-2020 20:15:00 1.4 C 4.96 g/m*3 1.4 C 0 km/h
245 20-11-2020 20:20:00 1.3 C 4.93 g/m*3 1.3 C 0 km/h
246 20-11-2020 20:25:00 1.3 C 4.98 g/m*3 1.3 C 0 km/h
247 20-11-2020 20:30:00 1.2 C 4.95 g/m*3 1.2 C 0 km/h
248 20-11-2020 20:35:00 1.2 C 4.95 g/m*3 1.2 C 0 km/h
249 20-11-2020 20:40:00 1.1 C 4.91 g/m*3 1.1 C 0 km/h
250 20-11-2020 20:45:00 1.2 C 4.95 g/m*3 1.2 C 0 km/h
Sensor: Nr:Datum:Temp:Abs-Feuchte:Windchill:Wind:
Aussen-T/F 251 20-11-2020 20:50:00 1.2 C 4.95 g/m*3 1.2 C 0 km/h
252 20-11-2020 20:55:00 1.2 C 4.95 g/m*3 1.2 C 0 km/h
253 20-11-2020 21:00:00 1.1 C 4.91 g/m*3 1.1 C 0 km/h
254 20-11-2020 21:05:00 1 C 4.88 g/m*3 1 C 0 km/h
255 20-11-2020 21:10:00 0.9 C 4.85 g/m*3 0.9 C 0 km/h
256 20-11-2020 21:15:00 0.8 C 4.81 g/m*3 0.8 C 0 km/h
257 20-11-2020 21:20:00 0.8 C 4.81 g/m*3 0.8 C 0 km/h
258 20-11-2020 21:25:00 0.7 C 4.78 g/m*3 0.7 C 0 km/h
259 20-11-2020 21:30:00 0.7 C 4.78 g/m*3 0.7 C 0 km/h
260 20-11-2020 21:35:00 0.7 C 4.83 g/m*3 0.7 C 0 km/h
261 20-11-2020 21:40:00 0.7 C 4.83 g/m*3 0.7 C 0 km/h
262 20-11-2020 21:45:00 0.7 C 4.83 g/m*3 0.7 C 0 km/h
263 20-11-2020 21:50:00 0.6 C 4.8 g/m*3 0.6 C 0 km/h
264 20-11-2020 21:55:00 0.5 C 4.76 g/m*3 0.5 C 0 km/h
265 20-11-2020 22:00:00 0.4 C 4.73 g/m*3 0.4 C 0 km/h
266 20-11-2020 22:05:00 0.4 C 4.73 g/m*3 0.4 C 0 km/h
267 20-11-2020 22:10:00 0.4 C 4.73 g/m*3 0.4 C 0 km/h
268 20-11-2020 22:15:00 0.3 C 4.7 g/m*3 0.3 C 0 km/h
269 20-11-2020 22:20:00 0.3 C 4.7 g/m*3 0.3 C 0 km/h
270 20-11-2020 22:25:00 0.3 C 4.7 g/m*3 0.3 C 0 km/h
271 20-11-2020 22:30:00 0.3 C 4.7 g/m*3 0.3 C 0 km/h
272 20-11-2020 22:35:00 0.2 C 4.67 g/m*3 0.2 C 0 km/h
273 20-11-2020 22:40:00 0.2 C 4.67 g/m*3 0.2 C 0 km/h
274 20-11-2020 22:45:00 0.2 C 4.67 g/m*3 0.2 C 0 km/h
275 20-11-2020 22:50:00 0.3 C 4.7 g/m*3 0.3 C 0 km/h
Sensor: Nr:Datum:Temp:Abs-Feuchte:Windchill:Wind:
Aussen-T/F 276 20-11-2020 22:55:00 0.3 C 4.7 g/m*3 0.3 C 0 km/h
277 20-11-2020 23:00:00 0.4 C 4.73 g/m*3 0.4 C 0 km/h
278 20-11-2020 23:05:00 0.4 C 4.73 g/m*3 0.4 C 0 km/h
279 20-11-2020 23:10:00 0.4 C 4.73 g/m*3 0.4 C 0 km/h
280 20-11-2020 23:15:00 0.3 C 4.7 g/m*3 0.3 C 0 km/h
281 20-11-2020 23:20:00 0.3 C 4.7 g/m*3 0.3 C 0 km/h
282 20-11-2020 23:25:00 0.2 C 4.67 g/m*3 0.2 C 0 km/h
283 20-11-2020 23:30:00 0.2 C 4.67 g/m*3 0.2 C 0 km/h
284 20-11-2020 23:35:00 0.2 C 4.67 g/m*3 0.2 C 0 km/h
285 20-11-2020 23:40:00 0.2 C 4.67 g/m*3 0.2 C 0 km/h
286 20-11-2020 23:45:00 0.2 C 4.67 g/m*3 0.2 C 1.6 km/h
287 20-11-2020 23:50:00 0.2 C 4.67 g/m*3 0.2 C 0 km/h
288 20-11-2020 23:55:00 0.3 C 4.75 g/m*3 0.3 C 1.6 km/h

Legende:
   Min
   Max


Maximal/Minimal-Werte vom 20.11.2020 - 20.11.2020

Sensor Min Max Avg
Temp
(Aussen-T/F)
0.2 °C
20-11-2020  22:35:00
7 °C
20-11-2020  16:05:00
4.04 °C
Abs-Feuchte
(Aussen-T/F)
4.67 g/m*3
20-11-2020  22:35:00
6.93 g/m*3
20-11-2020  14:00:00
5.91 g/m*3
Windchill
(Aussen-T/F)
0.2 C
20-11-2020  22:35:00
7 C
20-11-2020  16:05:00
3.83 C

Die Daten stammen von einer Davis Vantage Pro 2 Wetter-Station und werden unter Linux mit der Software wview2wettercgi und aufbereitet. Alle Angaben erfolgen ohne Gewähr für ihre Vollständigkeit oder Richtigkeit.
Kontakt: Rainer Krienke krienke@uni-koblenz.de . Meine Webseiten an der Uni Koblenz oder privat.
Version: $Revision: 0.78 $